Pawnee, Texas
Current Conditions -  °F | °C
As of 6:35 PM on Wednesday 26 Nov 2014 (Local Time) from KBEA Reporting Station
Clear Clear  
Wind Chill: 65°   Ceiling: Unl
Heat Index: 65°   Visibility: 10mi
Dew Point: 37°   Wind: 5mph
Humidity: 35%   Direction: 180°S
Pressure: 30.22"   Gusts: NA
Location:  28.65°N, 98°W
Report Text: KBEA 270035Z AUTO 18004KT 10SM CLR 18/03 A3022 RMK AO2 T01840025
Loading
Personal Weather Stations






























Interactive Weather Map New forecast layout! Learn more

10-Day Weather Forecast

Advertisements
Track Severe Weather on mobile